createdAt,value
2022-12-12T00:00:24.654Z,12.45
2022-12-12T00:02:51.420Z,11.68
2022-12-12T00:05:18.683Z,7.15
2022-12-12T00:07:45.503Z,9.50
2022-12-12T00:10:12.276Z,10.20
2022-12-12T00:12:38.993Z,6.15
2022-12-12T00:15:06.262Z,9.07
2022-12-12T00:17:32.988Z,5.80
2022-12-12T00:19:59.747Z,12.82
2022-12-12T00:22:26.393Z,5.85
2022-12-12T00:24:53.074Z,18.05
2022-12-12T00:27:19.759Z,8.05
2022-12-12T00:29:50.956Z,8.43
2022-12-12T00:32:17.626Z,7.35
2022-12-12T00:34:44.336Z,15.65
2022-12-12T00:37:11.046Z,9.75
2022-12-12T00:39:37.792Z,10.32
2022-12-12T00:42:04.460Z,11.40
2022-12-12T00:44:31.151Z,7.43
2022-12-12T00:46:57.814Z,7.85
2022-12-12T00:49:24.475Z,12.43
2022-12-12T00:51:51.212Z,5.50
2022-12-12T00:54:17.894Z,7.38
2022-12-12T00:56:44.731Z,12.70
2022-12-12T00:59:11.406Z,16.08
2022-12-12T01:01:40.037Z,21.00
2022-12-12T01:04:06.798Z,5.88
2022-12-12T01:06:33.581Z,12.93
2022-12-12T01:09:00.286Z,7.63
2022-12-12T01:11:26.993Z,7.63
2022-12-12T01:13:54.101Z,6.07
2022-12-12T01:16:20.945Z,10.70
2022-12-12T01:18:47.743Z,7.47
2022-12-12T01:21:15.594Z,23.33
2022-12-12T01:23:42.302Z,8.63
2022-12-12T01:26:11.163Z,8.27
2022-12-12T01:28:37.986Z,7.40
2022-12-12T01:31:04.839Z,12.02
2022-12-12T01:33:31.686Z,8.70
2022-12-12T01:35:58.459Z,5.32
2022-12-12T01:38:25.147Z,8.80
2022-12-12T01:40:52.370Z,6.65
2022-12-12T01:43:20.526Z,7.72
2022-12-12T01:45:59.317Z,9.73
2022-12-12T01:49:10.605Z,8.25
2022-12-12T01:51:37.483Z,8.88
2022-12-12T01:54:19.754Z,7.28
2022-12-12T01:56:46.489Z,10.90
2022-12-12T01:59:13.844Z,9.18
2022-12-12T02:01:40.721Z,11.18
2022-12-12T02:04:07.507Z,12.68
2022-12-12T02:06:34.198Z,9.40
2022-12-12T02:09:03.340Z,6.90
2022-12-12T02:11:31.131Z,8.52
2022-12-12T02:13:57.924Z,11.73
2022-12-12T02:16:27.695Z,19.67
2022-12-12T02:19:22.426Z,10.43
2022-12-12T02:21:57.017Z,7.57
2022-12-12T02:24:42.380Z,12.48
2022-12-12T02:27:30.720Z,11.65
2022-12-12T02:30:32.469Z,9.63
2022-12-12T02:33:13.264Z,12.80
2022-12-12T02:35:58.411Z,10.20
2022-12-12T02:38:29.516Z,14.13
2022-12-12T02:41:15.869Z,10.63
2022-12-12T02:43:54.113Z,13.00
2022-12-12T02:46:34.637Z,10.73
2022-12-12T02:49:11.444Z,12.02
2022-12-12T02:51:38.110Z,10.05
2022-12-12T02:54:05.307Z,10.70
2022-12-12T02:56:45.700Z,14.60
2022-12-12T02:59:33.469Z,14.40
2022-12-12T03:02:21.888Z,11.73
2022-12-12T03:05:04.539Z,9.18
2022-12-12T03:07:53.233Z,10.38
2022-12-12T03:10:31.149Z,9.57
2022-12-12T03:13:00.776Z,7.38
2022-12-12T03:15:38.499Z,7.97
2022-12-12T03:18:23.373Z,12.25
2022-12-12T03:20:54.301Z,12.65
2022-12-12T03:23:29.814Z,18.42
2022-12-12T03:26:02.707Z,12.23
2022-12-12T03:30:57.975Z,11.07
2022-12-12T03:33:42.596Z,10.25
2022-12-12T03:36:27.283Z,9.60
2022-12-12T03:38:59.735Z,10.82
2022-12-12T03:41:29.410Z,10.98
2022-12-12T03:44:03.661Z,8.65
2022-12-12T03:46:45.496Z,8.55
2022-12-12T03:49:20.360Z,12.07
2022-12-12T03:51:51.040Z,12.48
2022-12-12T03:54:40.284Z,15.38
2022-12-12T03:57:22.294Z,13.35
2022-12-12T03:59:54.954Z,11.70
2022-12-12T04:02:41.591Z,13.02
2022-12-12T04:05:21.760Z,16.05
2022-12-12T04:07:53.695Z,15.60
2022-12-12T04:10:22.092Z,15.97
2022-12-12T04:13:09.057Z,16.10
2022-12-12T04:15:54.347Z,17.70
2022-12-12T04:18:30.361Z,12.80
2022-12-12T04:21:24.736Z,13.20
2022-12-12T04:23:54.497Z,13.38
2022-12-12T04:26:53.547Z,13.40
2022-12-12T04:29:37.050Z,16.58
2022-12-12T04:32:32.579Z,11.98
2022-12-12T04:35:03.680Z,17.88
2022-12-12T04:37:47.438Z,15.48
2022-12-12T04:40:19.190Z,15.02
2022-12-12T04:42:48.643Z,22.42
2022-12-12T04:45:20.959Z,15.68
2022-12-12T04:47:49.190Z,19.80
2022-12-12T04:50:16.079Z,16.88
2022-12-12T04:52:42.974Z,14.75
2022-12-12T04:55:34.280Z,16.35
2022-12-12T04:58:01.066Z,20.25
2022-12-12T05:00:30.684Z,16.42
2022-12-12T05:03:02.488Z,16.05
2022-12-12T05:05:38.872Z,13.32
2022-12-12T05:08:33.420Z,17.45
2022-12-12T05:11:01.073Z,17.80
2022-12-12T05:13:29.459Z,17.25
2022-12-12T05:15:56.405Z,14.95
2022-12-12T05:18:23.132Z,14.07
2022-12-12T05:20:50.015Z,16.50
2022-12-12T05:23:16.879Z,17.88
2022-12-12T05:25:43.774Z,12.63
2022-12-12T05:28:10.521Z,16.80
2022-12-12T05:30:37.212Z,18.60
2022-12-12T05:33:04.017Z,24.05
2022-12-12T05:35:30.696Z,17.75
2022-12-12T05:37:57.386Z,15.68
2022-12-12T05:40:24.050Z,19.63
2022-12-12T05:42:50.741Z,14.93
2022-12-12T05:45:17.424Z,17.45
2022-12-12T05:47:44.082Z,18.42
2022-12-12T05:50:10.812Z,16.67
2022-12-12T05:52:37.509Z,16.58
2022-12-12T05:55:04.738Z,15.15
2022-12-12T05:57:31.470Z,22.50
2022-12-12T05:59:58.150Z,12.43
2022-12-12T06:02:24.931Z,17.17
2022-12-12T06:04:51.614Z,16.00
2022-12-12T06:07:18.283Z,17.27
2022-12-12T06:09:44.961Z,15.15
2022-12-12T06:12:11.682Z,26.05
2022-12-12T06:14:38.367Z,15.48
2022-12-12T06:17:05.097Z,24.25
2022-12-12T06:19:31.768Z,13.85
2022-12-12T06:21:58.453Z,18.02
2022-12-12T06:24:25.295Z,13.75
2022-12-12T06:26:52.050Z,18.63
2022-12-12T06:29:18.727Z,12.75
2022-12-12T06:31:45.408Z,8.90
2022-12-12T06:34:12.133Z,12.52
2022-12-12T06:36:39.005Z,12.80
2022-12-12T06:39:05.712Z,28.13
2022-12-12T06:41:32.903Z,11.38
2022-12-12T06:43:59.658Z,19.13
2022-12-12T06:46:27.458Z,13.52
2022-12-12T06:48:54.654Z,19.10
2022-12-12T06:51:23.403Z,17.63
2022-12-12T06:53:50.364Z,11.77
2022-12-12T06:56:19.108Z,13.88
2022-12-12T06:58:45.945Z,15.63
2022-12-12T07:01:13.674Z,20.30
2022-12-12T07:03:40.448Z,10.27
2022-12-12T07:06:07.429Z,15.15
2022-12-12T07:08:34.750Z,27.00
2022-12-12T07:11:10.480Z,19.08
2022-12-12T07:13:37.201Z,18.65
2022-12-12T07:16:04.301Z,13.07
2022-12-12T07:18:31.667Z,15.70
2022-12-12T07:20:58.395Z,14.25
2022-12-12T07:23:25.151Z,18.63
2022-12-12T07:25:54.055Z,20.92
2022-12-12T07:28:21.170Z,11.27
2022-12-12T07:30:48.057Z,11.65
2022-12-12T07:33:15.614Z,20.48
2022-12-12T07:35:42.562Z,16.20
2022-12-12T07:38:09.829Z,13.23
2022-12-12T07:40:36.611Z,15.30
2022-12-12T07:43:03.468Z,12.65
2022-12-12T07:45:30.203Z,13.90
2022-12-12T07:47:56.979Z,14.05
2022-12-12T07:50:23.701Z,15.40
2022-12-12T07:52:50.395Z,22.65
2022-12-12T07:55:17.210Z,12.13
2022-12-12T07:57:43.903Z,15.10
2022-12-12T08:00:11.695Z,10.52
2022-12-12T08:02:38.495Z,23.80
2022-12-12T08:05:05.696Z,14.25
2022-12-12T08:07:32.434Z,10.30
2022-12-12T08:09:59.128Z,18.13
2022-12-12T08:12:28.380Z,17.08
2022-12-12T08:14:55.186Z,11.38
2022-12-12T08:17:21.941Z,8.45
2022-12-12T08:19:48.680Z,11.88
2022-12-12T08:22:15.395Z,16.83
2022-12-12T08:24:42.178Z,17.13
2022-12-12T08:27:15.158Z,10.50
2022-12-12T08:29:42.509Z,9.90
2022-12-12T08:32:09.220Z,16.40
2022-12-12T08:34:35.993Z,5.60
2022-12-12T08:37:02.756Z,18.23
2022-12-12T08:39:29.443Z,12.63
2022-12-12T08:41:56.182Z,7.47
2022-12-12T08:44:22.937Z,7.78
2022-12-12T08:46:49.751Z,12.52
2022-12-12T08:49:16.544Z,10.45
2022-12-12T08:51:43.288Z,15.27
2022-12-12T08:54:14.207Z,7.82
2022-12-12T08:56:40.935Z,9.15
2022-12-12T08:59:07.698Z,10.85
2022-12-12T09:01:34.461Z,10.93
2022-12-12T09:04:01.297Z,8.35
2022-12-12T09:06:27.970Z,16.48
2022-12-12T09:08:55.984Z,17.25
2022-12-12T09:11:22.822Z,13.50
2022-12-12T09:13:49.699Z,7.15
2022-12-12T09:16:16.685Z,9.38
2022-12-12T09:18:48.469Z,16.20
2022-12-12T09:21:16.516Z,7.65
2022-12-12T09:23:43.207Z,11.50
2022-12-12T09:26:10.035Z,10.32
2022-12-12T09:28:36.808Z,10.60
2022-12-12T09:31:07.633Z,14.15
2022-12-12T09:33:34.854Z,13.93
2022-12-12T09:36:03.035Z,9.98
2022-12-12T09:38:29.737Z,15.18
2022-12-12T09:41:00.970Z,10.50
2022-12-12T09:43:33.145Z,14.38
2022-12-12T09:46:00.010Z,18.98
2022-12-12T09:48:47.187Z,12.48
2022-12-12T09:51:13.952Z,8.20
2022-12-12T09:53:41.490Z,10.80
2022-12-12T09:56:19.108Z,12.38
2022-12-12T09:59:10.382Z,16.95
2022-12-12T10:02:02.411Z,14.82
2022-12-12T10:04:37.078Z,17.33
2022-12-12T10:07:09.855Z,17.30
2022-12-12T10:09:39.326Z,15.45
2022-12-12T10:12:08.527Z,18.08
2022-12-12T10:14:53.313Z,19.58
2022-12-12T10:17:42.742Z,15.55
2022-12-12T10:20:20.339Z,8.27
2022-12-12T10:22:48.390Z,12.75
2022-12-12T10:25:34.583Z,11.60
2022-12-12T10:28:31.162Z,26.65
2022-12-12T10:31:28.848Z,21.05
2022-12-12T10:34:32.609Z,6.90
2022-12-12T10:39:57.228Z,12.73
2022-12-12T10:42:52.041Z,14.43
2022-12-12T10:45:21.568Z,27.98
2022-12-12T10:47:48.410Z,15.23
2022-12-12T10:50:32.923Z,14.43
2022-12-12T10:53:02.878Z,19.75
2022-12-12T10:55:47.726Z,18.35
2022-12-12T10:58:14.435Z,19.73
2022-12-12T11:00:41.960Z,15.50
2022-12-12T11:03:38.275Z,12.55
2022-12-12T11:06:07.233Z,12.52
2022-12-12T11:08:35.091Z,12.65
2022-12-12T11:11:06.030Z,16.92
2022-12-12T11:13:38.252Z,15.38
2022-12-12T11:16:13.619Z,11.50
2022-12-12T11:18:40.675Z,22.88
2022-12-12T11:21:11.510Z,11.15
2022-12-12T11:23:44.625Z,12.73
2022-12-12T11:26:17.519Z,20.55
2022-12-12T11:31:15.796Z,12.90
2022-12-12T11:33:47.526Z,18.73
2022-12-12T11:36:21.667Z,12.35
2022-12-12T11:38:50.167Z,15.38
2022-12-12T11:41:17.052Z,10.10
2022-12-12T11:43:49.519Z,13.73
2022-12-12T11:46:20.326Z,26.50
2022-12-12T11:48:47.204Z,24.77
2022-12-12T11:51:14.728Z,13.85
2022-12-12T11:53:43.715Z,12.00
2022-12-12T11:56:19.644Z,18.33
2022-12-12T11:58:51.789Z,17.00
2022-12-12T12:01:41.166Z,13.63
2022-12-12T12:04:33.237Z,8.23
2022-12-12T12:07:14.932Z,9.23
2022-12-12T12:09:50.047Z,9.25
2022-12-12T12:12:19.940Z,14.85
2022-12-12T12:15:08.260Z,12.65
2022-12-12T12:18:00.097Z,9.57
2022-12-12T12:21:21.229Z,27.25
2022-12-12T12:24:12.201Z,23.67
2022-12-12T12:26:51.261Z,11.95
2022-12-12T12:29:26.889Z,19.25
2022-12-12T12:32:26.167Z,9.20
2022-12-12T12:34:55.956Z,12.23
2022-12-12T12:37:49.566Z,19.38
2022-12-12T12:40:55.400Z,13.45
2022-12-12T12:43:36.085Z,27.65
2022-12-12T12:46:17.449Z,17.13
2022-12-12T12:48:45.948Z,19.10
2022-12-12T12:51:43.041Z,15.93
2022-12-12T12:54:22.283Z,9.77
2022-12-12T12:57:07.033Z,18.35
2022-12-12T12:59:36.632Z,12.73
2022-12-12T13:02:12.307Z,23.13
2022-12-12T13:04:43.897Z,20.25
2022-12-12T13:07:40.906Z,25.27
2022-12-12T13:10:29.873Z,20.63
2022-12-12T13:13:12.127Z,21.42
2022-12-12T13:15:43.841Z,19.17
2022-12-12T13:18:17.133Z,30.58
2022-12-12T13:21:00.560Z,23.52
2022-12-12T13:24:03.075Z,28.38
2022-12-12T13:26:46.907Z,20.40
2022-12-12T13:29:19.395Z,39.08
2022-12-12T13:32:03.774Z,27.48
2022-12-12T13:34:30.442Z,19.60
2022-12-12T13:36:57.204Z,29.55
2022-12-12T13:39:30.603Z,28.08
2022-12-12T13:42:01.838Z,30.60
2022-12-12T13:44:55.169Z,20.65
2022-12-12T13:47:21.896Z,24.95
2022-12-12T13:49:55.900Z,21.85
2022-12-12T13:52:38.989Z,25.05
2022-12-12T13:55:11.851Z,24.23
2022-12-12T13:57:59.651Z,21.63
2022-12-12T14:00:30.498Z,33.28
2022-12-12T14:03:12.662Z,34.28
2022-12-12T14:05:42.879Z,24.23
2022-12-12T14:08:13.127Z,32.70
2022-12-12T14:10:49.702Z,23.85
2022-12-12T14:13:22.606Z,28.75
2022-12-12T14:18:25.831Z,38.60
2022-12-12T14:20:59.136Z,22.70
2022-12-12T14:23:28.144Z,40.53
2022-12-12T14:25:55.212Z,29.52
2022-12-12T14:28:22.830Z,25.27
2022-12-12T14:30:56.769Z,23.08
2022-12-12T14:33:29.536Z,34.55
2022-12-12T14:36:04.720Z,27.63
2022-12-12T14:38:54.223Z,27.40
2022-12-12T14:41:23.097Z,39.92
2022-12-12T14:44:36.741Z,27.25
2022-12-12T14:46:42.056Z,35.22
2022-12-12T14:49:13.973Z,24.77
2022-12-12T14:51:40.769Z,43.65
2022-12-12T14:54:14.723Z,37.22
2022-12-12T14:56:47.649Z,31.25
2022-12-12T14:59:26.013Z,30.10
2022-12-12T15:01:57.007Z,39.90
2022-12-12T15:04:35.163Z,32.25
2022-12-12T15:07:05.943Z,32.53
2022-12-12T15:09:34.043Z,26.23
2022-12-12T15:12:14.368Z,38.90
2022-12-12T15:14:47.176Z,36.97
2022-12-12T15:17:23.048Z,41.22
2022-12-12T15:20:00.860Z,29.95
2022-12-12T15:22:48.449Z,28.45
2022-12-12T15:25:19.819Z,32.15
2022-12-12T15:27:53.858Z,47.50
2022-12-12T15:30:26.581Z,34.17
2022-12-12T15:32:53.300Z,27.52
2022-12-12T15:35:21.739Z,33.80
2022-12-12T15:37:56.272Z,26.25
2022-12-12T15:40:25.777Z,29.05
2022-12-12T15:42:54.263Z,23.95
2022-12-12T15:45:45.160Z,28.20
2022-12-12T15:48:14.273Z,38.45
2022-12-12T15:50:44.229Z,29.73
2022-12-12T15:53:19.754Z,37.17
2022-12-12T15:56:08.311Z,33.33
2022-12-12T15:58:48.283Z,21.38
2022-12-12T16:01:20.904Z,38.35
2022-12-12T16:04:10.634Z,35.03
2022-12-12T16:06:38.132Z,24.67
2022-12-12T16:09:13.344Z,37.78
2022-12-12T16:11:55.972Z,23.98
2022-12-12T16:14:25.650Z,30.73
2022-12-12T16:17:15.157Z,41.00
2022-12-12T16:19:42.761Z,26.13
2022-12-12T16:22:15.510Z,26.80
2022-12-12T16:25:23.644Z,58.78
2022-12-12T16:27:55.058Z,48.70
2022-12-12T16:30:21.775Z,26.17
2022-12-12T16:32:48.498Z,36.45
2022-12-12T16:35:16.524Z,25.05
2022-12-12T16:37:43.294Z,35.50
2022-12-12T16:40:13.933Z,35.08
2022-12-12T16:42:41.042Z,27.95
2022-12-12T16:45:07.951Z,27.25
2022-12-12T16:47:34.902Z,26.77
2022-12-12T16:50:01.654Z,22.30
2022-12-12T16:52:28.366Z,28.73
2022-12-12T16:55:05.454Z,53.47
2022-12-12T17:05:40.666Z,50.08
2022-12-12T17:08:07.420Z,30.23
2022-12-12T17:10:34.159Z,21.73
2022-12-12T17:13:02.351Z,32.83
2022-12-12T17:15:30.257Z,24.00
2022-12-12T17:17:57.137Z,22.95
2022-12-12T17:20:23.969Z,26.02
2022-12-12T17:22:50.752Z,34.10
2022-12-12T17:25:17.618Z,21.75
2022-12-12T17:27:44.410Z,30.77
2022-12-12T17:30:12.086Z,18.85
2022-12-12T17:32:39.106Z,25.00
2022-12-12T17:35:06.397Z,28.67
2022-12-12T17:37:33.073Z,17.60
2022-12-12T17:40:00.299Z,23.70
2022-12-12T17:42:30.033Z,29.80
2022-12-12T17:44:56.717Z,29.13
2022-12-12T17:47:23.555Z,27.00
2022-12-12T17:49:50.249Z,33.85
2022-12-12T17:52:16.999Z,21.15
2022-12-12T17:54:43.674Z,25.80
2022-12-12T17:57:30.376Z,23.45
2022-12-12T17:59:58.080Z,20.42
2022-12-12T18:02:25.131Z,24.55
2022-12-12T18:04:51.828Z,15.82
2022-12-12T18:07:18.568Z,25.23
2022-12-12T18:09:45.305Z,27.90
2022-12-12T18:12:11.990Z,19.40
2022-12-12T18:14:38.684Z,21.50
2022-12-12T18:17:05.438Z,27.40
2022-12-12T18:19:32.151Z,15.63
2022-12-12T18:22:01.503Z,14.98
2022-12-12T18:24:28.827Z,21.35
2022-12-12T18:26:56.582Z,27.55
2022-12-12T18:29:23.433Z,22.98
2022-12-12T18:31:50.156Z,20.45
2022-12-12T18:34:16.951Z,17.95
2022-12-12T18:36:43.698Z,19.70
2022-12-12T18:39:10.503Z,19.60
2022-12-12T18:41:37.284Z,24.15
2022-12-12T18:44:05.189Z,24.55
2022-12-12T18:46:33.233Z,23.75
2022-12-12T18:49:02.621Z,24.13
2022-12-12T18:51:29.409Z,17.08
2022-12-12T18:54:00.267Z,22.85
2022-12-12T18:56:27.753Z,17.80
2022-12-12T18:58:55.482Z,19.92
2022-12-12T19:01:23.961Z,23.27
2022-12-12T19:03:51.766Z,17.30
2022-12-12T19:06:22.445Z,20.75
2022-12-12T19:08:49.164Z,19.55
2022-12-12T19:11:15.904Z,26.40
2022-12-12T19:13:42.726Z,28.85
2022-12-12T19:16:11.339Z,24.35
2022-12-12T19:18:38.543Z,21.63
2022-12-12T19:21:10.214Z,22.25
2022-12-12T19:23:37.174Z,22.58
2022-12-12T19:26:24.320Z,21.30
2022-12-12T19:28:51.975Z,19.48
2022-12-12T19:31:18.863Z,17.38
2022-12-12T19:33:45.559Z,24.10
2022-12-12T19:36:17.108Z,22.75
2022-12-12T19:38:44.137Z,21.92
2022-12-12T19:41:11.212Z,18.48
2022-12-12T19:43:37.950Z,17.60
2022-12-12T19:46:24.395Z,20.02
2022-12-12T19:48:58.726Z,21.67
2022-12-12T19:51:26.088Z,20.63
2022-12-12T19:53:56.897Z,19.88
2022-12-12T19:56:25.459Z,17.65
2022-12-12T19:58:52.317Z,17.73
2022-12-12T20:01:23.385Z,29.60
2022-12-12T20:03:50.494Z,21.08
2022-12-12T20:06:17.339Z,18.80
2022-12-12T20:08:44.200Z,19.50
2022-12-12T20:11:13.107Z,17.88
2022-12-12T20:13:39.999Z,21.63
2022-12-12T20:16:08.007Z,18.45
2022-12-12T20:18:34.794Z,17.63
2022-12-12T20:21:01.480Z,24.08
2022-12-12T20:23:29.178Z,18.88
2022-12-12T20:25:55.856Z,17.80
2022-12-12T20:28:22.620Z,16.40
2022-12-12T20:30:53.262Z,14.95
2022-12-12T20:33:20.307Z,18.23
2022-12-12T20:35:46.989Z,19.25
2022-12-12T20:38:13.691Z,21.75
2022-12-12T20:40:40.388Z,23.80
2022-12-12T20:43:07.097Z,17.67
2022-12-12T20:45:36.303Z,18.50
2022-12-12T20:48:07.417Z,17.88
2022-12-12T20:50:34.512Z,19.73
2022-12-12T20:53:01.220Z,21.02
2022-12-12T20:55:27.874Z,17.23
2022-12-12T20:57:54.683Z,18.08
2022-12-12T21:00:21.447Z,19.02
2022-12-12T21:02:48.205Z,27.50
2022-12-12T21:05:15.266Z,22.25
2022-12-12T21:07:42.300Z,25.45
2022-12-12T21:10:09.351Z,19.00
2022-12-12T21:12:36.052Z,25.38
2022-12-12T21:15:03.227Z,23.88
2022-12-12T21:17:30.123Z,30.52
2022-12-12T21:19:59.520Z,30.63
2022-12-12T21:22:29.831Z,21.58
2022-12-12T21:24:56.485Z,18.17
2022-12-12T21:27:23.177Z,21.13
2022-12-12T21:29:49.865Z,22.20
2022-12-12T21:32:16.574Z,19.20
2022-12-12T21:34:43.246Z,19.92
2022-12-12T21:37:09.940Z,25.25
2022-12-12T21:39:36.581Z,20.42
2022-12-12T21:42:03.293Z,16.83
2022-12-12T21:44:29.965Z,22.90
2022-12-12T21:46:56.700Z,28.50
2022-12-12T21:49:24.588Z,22.08
2022-12-12T21:51:51.643Z,21.90
2022-12-12T21:54:18.326Z,15.40
2022-12-12T21:56:44.998Z,17.65
2022-12-12T21:59:14.907Z,22.27
2022-12-12T22:01:41.775Z,22.55
2022-12-12T22:04:09.028Z,16.02
2022-12-12T22:06:35.827Z,16.02
2022-12-12T22:09:04.507Z,33.85
2022-12-12T22:11:40.840Z,18.40
2022-12-12T22:14:14.099Z,17.77
2022-12-12T22:16:40.835Z,15.27
2022-12-12T22:19:10.012Z,24.63
2022-12-12T22:21:36.694Z,20.60
2022-12-12T22:24:03.625Z,28.67
2022-12-12T22:26:37.748Z,17.08
2022-12-12T22:29:06.032Z,15.68
2022-12-12T22:31:34.387Z,15.70
2022-12-12T22:34:03.132Z,16.20
2022-12-12T22:36:31.564Z,28.83
2022-12-12T22:38:58.568Z,30.88
2022-12-12T22:41:26.137Z,33.00
2022-12-12T22:43:53.932Z,16.50
2022-12-12T22:46:20.705Z,22.02
2022-12-12T22:48:56.623Z,22.80
2022-12-12T22:51:24.706Z,19.10
2022-12-12T22:53:52.480Z,40.03
2022-12-12T22:56:19.147Z,24.02
2022-12-12T22:58:45.822Z,21.75
2022-12-12T23:01:16.542Z,17.55
2022-12-12T23:03:43.492Z,27.38
2022-12-12T23:06:12.224Z,21.48
2022-12-12T23:08:39.219Z,26.25
2022-12-12T23:11:13.292Z,23.85
2022-12-12T23:13:41.010Z,19.75
2022-12-12T23:16:09.197Z,28.83
2022-12-12T23:18:39.388Z,27.50
2022-12-12T23:21:09.042Z,19.35
2022-12-12T23:23:38.966Z,16.52
2022-12-12T23:26:13.348Z,14.43
2022-12-12T23:28:40.200Z,16.27
2022-12-12T23:31:13.914Z,18.75
2022-12-12T23:33:40.668Z,35.85
2022-12-12T23:36:11.092Z,29.02
2022-12-12T23:38:38.049Z,20.35
2022-12-12T23:41:09.248Z,28.88
2022-12-12T23:43:35.969Z,18.45
2022-12-12T23:46:06.672Z,18.48
2022-12-12T23:48:33.831Z,36.33
2022-12-12T23:51:00.610Z,32.03
2022-12-12T23:53:27.366Z,25.35
2022-12-12T23:55:54.083Z,29.92
2022-12-12T23:58:20.773Z,22.95
